Coelho da Rocha, Brazil
Current Conditions -  °F | °C
As of 4:00 PM on Sunday 23 Nov 2014 (Local Time) from SBAF Reporting Station
Broken Clouds Broken Clouds  
Wind Chill: 79°   Ceiling: 2000
Heat Index: 81°   Visibility: 4mi
Dew Point: 70°   Wind: 7mph
Humidity: 74%   Direction: 220°SW
Pressure: 29.88"   Gusts: NA
Location:  22.78°S, 43.38°W
Report Text: SBAF 231800Z 22006KT 6000 FEW012 BKN020 BKN090 26/21 Q1012
Loading
Personal Weather Stations






























Interactive Weather Map New forecast layout! Learn more

10-Day Weather Forecast

Advertisements
Track Severe Weather on mobile